Time;durP1;ratioP1;P1;durP2;ratioP2;P2;SDS_P1;SDS_P2;PMS_P1;PMS_P2;Temp;Humidity;BMP_temperature;BMP_pressure;BME280_temperature;BME280_humidity;BME280_pressure;Samples;Min_cycle;Max_cycle;Signal;HPM_P1;HPM_P2
2024/01/26 00:01:33;;;;;;;18.50;10.37;;;;;;;0.05;100.00;98467.06;5037843;28;20534;-68
2024/01/26 00:03:59;;;;;;;17.53;10.23;;;;;;;0.00;100.00;98449.97;5038436;28;20079;-68
2024/01/26 00:06:25;;;;;;;19.77;9.67;;;;;;;0.00;100.00;98463.03;4978653;28;20089;-67
2024/01/26 00:08:51;;;;;;;17.70;10.17;;;;;;;0.02;100.00;98470.75;4994975;28;20045;-69
2024/01/26 00:11:18;;;;;;;19.07;9.40;;;;;;;0.08;100.00;98453.78;4995299;28;20081;-68
2024/01/26 00:13:45;;;;;;;20.17;9.70;;;;;;;0.05;100.00;98475.72;5011734;28;20128;-68
2024/01/26 00:16:11;;;;;;;15.57;8.40;;;;;;;0.06;100.00;98463.50;4994993;28;20092;-68
2024/01/26 00:18:39;;;;;;;16.20;8.53;;;;;;;0.22;100.00;98474.38;5011053;28;20048;-68
2024/01/26 00:21:06;;;;;;;15.23;8.63;;;;;;;0.17;100.00;98468.72;5011137;28;20042;-68
2024/01/26 00:23:32;;;;;;;18.93;10.10;;;;;;;0.14;100.00;98477.59;5030286;28;20053;-68
2024/01/26 00:25:59;;;;;;;17.87;9.83;;;;;;;0.24;100.00;98478.53;5034062;28;20481;-68
2024/01/26 00:28:25;;;;;;;15.20;8.30;;;;;;;0.15;100.00;98481.88;4994749;28;20073;-68
2024/01/26 00:30:51;;;;;;;16.93;9.57;;;;;;;0.18;100.00;98476.44;5074203;28;20063;-71
2024/01/26 00:33:17;;;;;;;19.83;9.70;;;;;;;0.16;100.00;98477.47;5074261;28;20135;-68
2024/01/26 00:35:43;;;;;;;18.57;9.80;;;;;;;0.24;100.00;98482.91;5040561;28;20588;-69
2024/01/26 00:38:09;;;;;;;18.03;9.77;;;;;;;0.29;100.00;98483.41;5074153;27;20106;-69
2024/01/26 00:40:36;;;;;;;17.13;9.93;;;;;;;0.35;100.00;98481.13;5096931;27;20043;-69
2024/01/26 00:43:02;;;;;;;20.03;10.57;;;;;;;0.32;100.00;98475.31;5115112;27;20039;-69
2024/01/26 00:45:30;;;;;;;18.43;10.13;;;;;;;0.40;100.00;98471.13;5114145;27;20359;-68
2024/01/26 00:47:56;;;;;;;20.20;10.20;;;;;;;0.38;100.00;98473.06;5131857;27;20148;-69
2024/01/26 00:50:22;;;;;;;19.37;10.20;;;;;;;0.39;100.00;98479.94;5081836;27;20137;-70
2024/01/26 00:52:49;;;;;;;18.73;10.50;;;;;;;0.32;100.00;98484.00;5115901;27;20042;-69
2024/01/26 00:55:16;;;;;;;20.13;10.47;;;;;;;0.22;100.00;98493.50;5098390;27;20035;-70
2024/01/26 00:57:42;;;;;;;20.90;10.10;;;;;;;0.19;100.00;98485.91;5115220;27;20289;-69
2024/01/26 01:00:08;;;;;;;16.67;9.47;;;;;;;0.21;100.00;98491.00;5098328;27;20043;-68
2024/01/26 01:02:36;;;;;;;19.80;9.97;;;;;;;0.20;100.00;98490.16;5098519;27;20081;-69
2024/01/26 01:05:06;;;;;;;16.67;9.23;;;;;;;0.20;100.00;98489.34;5132317;27;20039;-68
2024/01/26 01:07:32;;;;;;;16.40;9.03;;;;;;;0.19;100.00;98487.66;5115620;27;20045;-69
2024/01/26 01:10:00;;;;;;;17.90;9.77;;;;;;;0.20;100.00;98499.78;5115129;27;20039;-68
2024/01/26 01:12:25;;;;;;;18.90;9.87;;;;;;;0.21;100.00;98504.06;5114746;27;20100;-69
2024/01/26 01:14:53;;;;;;;17.47;9.73;;;;;;;0.20;100.00;98500.59;5098998;27;20035;-69
2024/01/26 01:17:19;;;;;;;17.40;9.57;;;;;;;0.05;100.00;98501.81;5115344;28;20069;-68
2024/01/26 01:19:46;;;;;;;18.87;9.97;;;;;;;0.01;100.00;98497.81;5098261;27;20550;-69
2024/01/26 01:22:13;;;;;;;17.83;9.80;;;;;;;0.11;100.00;98503.13;5098637;27;20039;-69
2024/01/26 01:24:39;;;;;;;17.80;8.97;;;;;;;0.03;100.00;98505.50;5094621;28;20047;-69
2024/01/26 01:27:05;;;;;;;17.70;8.53;;;;;;;0.05;100.00;98504.44;5060644;28;20078;-69
2024/01/26 01:29:31;;;;;;;18.57;9.13;;;;;;;0.04;100.00;98494.94;5043150;28;20051;-69
2024/01/26 01:31:57;;;;;;;17.70;9.43;;;;;;;0.11;100.00;98505.75;5076529;28;20491;-69
2024/01/26 01:34:23;;;;;;;17.40;9.13;;;;;;;0.17;100.00;98505.25;5036434;28;20087;-68
2024/01/26 01:36:49;;;;;;;16.47;9.00;;;;;;;0.21;100.00;98506.66;5019958;28;20044;-69
2024/01/26 01:39:15;;;;;;;20.07;9.27;;;;;;;0.26;100.00;98509.75;5019887;28;20131;-68
2024/01/26 01:41:46;;;;;;;13.17;8.07;;;;;;;0.34;100.00;98513.41;5003803;28;20036;-69
2024/01/26 01:44:12;;;;;;;16.93;9.20;;;;;;;0.31;100.00;98508.41;5053003;28;20060;-69
2024/01/26 01:46:38;;;;;;;17.17;9.83;;;;;;;0.32;100.00;98519.72;4987095;28;20052;-68
2024/01/26 01:49:04;;;;;;;17.30;9.17;;;;;;;0.35;100.00;98524.69;5036298;28;20048;-69
2024/01/26 01:51:33;;;;;;;19.33;10.13;;;;;;;0.43;100.00;98535.34;5036549;28;20253;-69
2024/01/26 01:53:59;;;;;;;19.37;9.97;;;;;;;0.34;100.00;98530.88;5036957;28;20048;-70
2024/01/26 01:56:27;;;;;;;17.57;9.60;;;;;;;0.41;100.00;98514.59;5036621;28;20553;-71
2024/01/26 01:58:53;;;;;;;18.17;9.73;;;;;;;0.27;100.00;98519.22;5017616;28;20172;-68
2024/01/26 02:01:19;;;;;;;20.13;10.77;;;;;;;0.38;100.00;98519.22;5021179;28;20152;-68
2024/01/26 02:03:45;;;;;;;19.07;9.93;;;;;;;0.43;100.00;98525.72;5037443;28;20622;-69
2024/01/26 02:06:12;;;;;;;22.60;11.10;;;;;;;0.43;100.00;98528.34;5072121;28;20149;-70
2024/01/26 02:08:40;;;;;;;19.43;10.30;;;;;;;0.58;100.00;98531.50;5081946;28;20089;-70
2024/01/26 02:11:06;;;;;;;18.33;10.40;;;;;;;0.54;100.00;98528.31;5082707;28;20119;-70
2024/01/26 02:13:32;;;;;;;21.17;10.73;;;;;;;0.58;100.00;98531.50;5048531;28;20169;-70
2024/01/26 02:15:59;;;;;;;18.20;9.50;;;;;;;0.68;100.00;98529.81;5081256;28;20055;-69
2024/01/26 02:18:42;;;;;;;18.80;10.53;;;;;;;0.55;100.00;98542.22;5086411;28;20139;-69
2024/01/26 02:21:14;;;;;;;20.37;10.20;;;;;;;0.58;100.00;98547.19;5098576;28;20043;-70
2024/01/26 02:23:43;;;;;;;19.07;9.90;;;;;;;0.60;100.00;98545.28;5057545;28;20396;-70
2024/01/26 02:26:09;;;;;;;17.70;9.63;;;;;;;0.63;100.00;98543.25;5008181;28;20048;-70
2024/01/26 02:28:36;;;;;;;19.53;9.50;;;;;;;0.68;100.00;98548.09;5008337;28;20052;-69
2024/01/26 02:31:02;;;;;;;18.97;10.20;;;;;;;0.65;100.00;98554.41;5060431;28;20142;-70
2024/01/26 02:33:28;;;;;;;18.33;9.97;;;;;;;0.71;100.00;98558.34;5074206;28;20062;-69
2024/01/26 02:35:54;;;;;;;18.03;9.83;;;;;;;0.68;100.00;98554.16;5060325;28;20036;-69
2024/01/26 02:38:20;;;;;;;20.17;10.87;;;;;;;0.75;100.00;98562.34;5076386;28;20503;-68
2024/01/26 02:40:47;;;;;;;19.90;10.57;;;;;;;0.95;100.00;98570.25;5059786;28;20388;-68
2024/01/26 02:43:13;;;;;;;21.97;10.87;;;;;;;0.82;100.00;98571.34;5059553;28;20040;-68
2024/01/26 02:45:46;;;;;;;19.53;10.33;;;;;;;0.91;100.00;98571.44;5059484;28;20063;-68
2024/01/26 02:48:14;;;;;;;24.07;11.13;;;;;;;0.79;100.00;98577.66;5028000;28;20044;-67
2024/01/26 02:50:44;;;;;;;20.55;10.82;;;;;;;0.82;100.00;98574.78;5061040;28;20040;-67
2024/01/26 02:53:10;;;;;;;19.30;10.23;;;;;;;0.85;100.00;98573.69;5039282;28;20654;-68
2024/01/26 02:55:36;;;;;;;21.00;10.97;;;;;;;0.79;100.00;98574.19;5060349;28;20051;-67
2024/01/26 02:58:02;;;;;;;21.93;10.80;;;;;;;0.78;100.00;98580.41;5096110;28;20053;-67
2024/01/26 03:00:27;;;;;;;23.87;12.00;;;;;;;0.78;100.00;98589.06;5045967;28;20066;-67
2024/01/26 03:02:53;;;;;;;22.77;11.10;;;;;;;0.82;100.00;98587.03;5062463;28;20110;-67
2024/01/26 03:05:20;;;;;;;19.17;10.40;;;;;;;0.86;100.00;98588.44;5079315;28;20035;-68
2024/01/26 03:07:46;;;;;;;22.90;12.43;;;;;;;0.77;100.00;98591.81;5062462;28;20150;-68
2024/01/26 03:10:12;;;;;;;30.17;12.37;;;;;;;0.75;100.00;98599.78;5079562;28;20114;-68
2024/01/26 03:12:38;;;;;;;26.87;13.10;;;;;;;0.76;100.00;98600.56;5097680;28;20067;-69
2024/01/26 03:15:05;;;;;;;25.00;12.90;;;;;;;0.75;100.00;98607.59;5080990;28;20039;-69
2024/01/26 03:17:32;;;;;;;26.23;12.23;;;;;;;0.76;100.00;98608.41;5080299;28;20130;-69
2024/01/26 03:20:00;;;;;;;24.60;12.17;;;;;;;0.72;100.00;98602.63;5063314;28;20047;-73
2024/01/26 03:22:29;;;;;;;22.63;11.40;;;;;;;0.74;100.00;98600.69;5096674;28;20047;-68
2024/01/26 03:24:55;;;;;;;24.20;11.50;;;;;;;0.76;100.00;98603.19;5093734;27;20050;-68
2024/01/26 03:27:21;;;;;;;26.20;11.07;;;;;;;0.70;100.00;98606.28;5084292;27;20047;-69
2024/01/26 03:29:47;;;;;;;23.83;11.47;;;;;;;0.71;100.00;98610.59;5082270;27;20051;-69
2024/01/26 03:32:13;;;;;;;23.50;11.57;;;;;;;0.70;100.00;98614.13;5066139;27;20494;-71
2024/01/26 03:34:40;;;;;;;25.43;12.07;;;;;;;0.78;100.00;98620.44;5083157;27;20092;-72
2024/01/26 03:37:11;;;;;;;22.90;11.00;;;;;;;0.84;100.00;98624.31;5085258;27;20058;-72
2024/01/26 03:39:40;;;;;;;;;;;;;;;1.02;100.00;98615.84;5065517;27;20077;-72
2024/01/26 03:42:10;;;;;;;24.67;11.87;;;;;;;0.78;100.00;98620.44;5082730;27;20406;-72
2024/01/26 03:44:38;;;;;;;21.48;10.05;;;;;;;0.84;100.00;98624.31;5090383;27;20051;-74
2024/01/26 03:47:04;;;;;;;22.27;10.53;;;;;;;0.83;100.00;98628.72;5090817;27;20093;-76
2024/01/26 03:49:31;;;;;;;19.90;10.43;;;;;;;0.82;100.00;98628.84;5070068;27;20137;-72
2024/01/26 03:51:57;;;;;;;21.93;10.20;;;;;;;0.83;100.00;98626.09;5077285;27;20047;-73
2024/01/26 03:54:25;;;;;;;19.53;9.97;;;;;;;0.86;100.00;98633.69;5068202;28;20131;-72
2024/01/26 03:56:52;;;;;;;19.90;10.17;;;;;;;0.88;100.00;98634.41;5059251;28;20051;-74
2024/01/26 03:59:19;;;;;;;28.53;11.47;;;;;;;0.87;100.00;98634.53;5068527;28;20065;-69
2024/01/26 04:01:45;;;;;;;20.90;10.73;;;;;;;0.84;100.00;98647.84;5081667;27;20051;-71
2024/01/26 04:04:11;;;;;;;21.60;10.10;;;;;;;0.76;100.00;98650.22;5115344;27;20430;-74
2024/01/26 04:06:45;;;;;;;20.20;10.63;;;;;;;0.95;100.00;98653.06;5084484;27;20455;-70
2024/01/26 04:09:17;;;;;;;20.53;10.23;;;;;;;0.92;100.00;98648.88;5077169;28;20044;-70
2024/01/26 04:11:46;;;;;;;18.37;10.20;;;;;;;0.87;100.00;98648.44;5066255;28;20438;-70
2024/01/26 04:14:12;;;;;;;18.87;10.00;;;;;;;0.92;100.00;98658.53;5065375;28;20046;-69
2024/01/26 04:16:38;;;;;;;17.93;9.27;;;;;;;0.94;100.00;98661.84;5055427;28;20116;-70
2024/01/26 04:19:04;;;;;;;17.13;9.50;;;;;;;0.98;100.00;98652.81;5056360;28;20036;-67
2024/01/26 04:21:29;;;;;;;19.07;9.80;;;;;;;0.94;100.00;98660.06;5054134;28;20044;-66
2024/01/26 04:23:55;;;;;;;19.17;10.40;;;;;;;1.02;100.00;98668.13;5056557;28;20463;-69
2024/01/26 04:26:21;;;;;;;20.03;9.83;;;;;;;1.03;100.00;98666.34;5064682;28;20585;-69
2024/01/26 04:28:47;;;;;;;17.97;9.47;;;;;;;1.08;100.00;98666.78;5044521;28;20055;-71
2024/01/26 04:31:15;;;;;;;19.30;9.30;;;;;;;1.12;100.00;98671.66;5028779;28;20105;-72
2024/01/26 04:33:41;;;;;;;18.07;8.87;;;;;;;1.13;100.00;98675.94;5077502;27;20513;-71
2024/01/26 04:36:10;;;;;;;14.53;8.37;;;;;;;1.18;100.00;98681.66;5129365;27;20115;-70
2024/01/26 04:38:37;;;;;;;17.33;9.60;;;;;;;1.16;100.00;98675.69;5129863;27;20137;-70
2024/01/26 04:41:03;;;;;;;19.87;9.00;;;;;;;1.13;100.00;98683.78;5112816;27;20051;-74
2024/01/26 04:43:31;;;;;;;17.90;9.13;;;;;;;1.17;100.00;98679.97;5113693;27;20092;-71
2024/01/26 04:45:57;;;;;;;20.40;8.93;;;;;;;1.18;100.00;98684.25;5131972;27;20351;-73
2024/01/26 04:48:23;;;;;;;15.53;8.27;;;;;;;1.22;100.00;98687.44;5115045;27;20054;-71
2024/01/26 04:50:49;;;;;;;19.20;9.60;;;;;;;1.20;100.00;98684.94;5097846;27;20046;-70
2024/01/26 04:53:15;;;;;;;17.13;9.00;;;;;;;1.20;100.00;98690.19;5076587;28;20056;-71
2024/01/26 04:55:43;;;;;;;21.47;9.43;;;;;;;1.26;100.00;98688.88;5027712;28;20476;-71
2024/01/26 04:58:10;;;;;;;17.53;8.47;;;;;;;1.22;100.00;98684.81;5017290;28;20057;-71
2024/01/26 05:00:37;;;;;;;16.77;8.40;;;;;;;1.19;100.00;98685.91;5000615;28;20113;-70
2024/01/26 05:03:03;;;;;;;17.60;9.03;;;;;;;1.16;100.00;98696.63;5032965;28;20508;-75
2024/01/26 05:05:29;;;;;;;18.07;8.90;;;;;;;1.08;100.00;98696.38;5033071;28;20078;-71
2024/01/26 05:07:55;;;;;;;14.40;7.70;;;;;;;1.11;100.00;98696.16;5048085;28;20367;-71
2024/01/26 05:10:21;;;;;;;20.83;10.37;;;;;;;1.05;100.00;98704.47;5016540;28;20397;-71
2024/01/26 05:12:47;;;;;;;15.97;8.47;;;;;;;1.08;100.00;98703.41;5033036;28;20082;-70
2024/01/26 05:15:13;;;;;;;17.47;9.10;;;;;;;1.02;100.00;98709.09;5016896;28;20041;-70
2024/01/26 05:17:39;;;;;;;20.93;10.13;;;;;;;1.05;100.00;98714.94;5009939;28;20061;-70
2024/01/26 05:20:06;;;;;;;22.00;10.27;;;;;;;1.14;100.00;98708.97;4993339;28;20371;-71
2024/01/26 05:22:32;;;;;;;19.10;9.90;;;;;;;1.11;100.00;98709.22;4977459;28;20062;-70
2024/01/26 05:24:58;;;;;;;16.87;9.73;;;;;;;1.12;100.00;98710.88;5010008;28;20062;-70
2024/01/26 05:27:25;;;;;;;18.13;9.43;;;;;;;1.17;100.00;98716.56;4993993;28;20038;-70
2024/01/26 05:29:52;;;;;;;18.10;9.40;;;;;;;1.10;100.00;98719.78;5016457;28;20433;-71
2024/01/26 05:32:20;;;;;;;17.23;9.73;;;;;;;1.27;100.00;98717.53;5000150;28;20496;-72
2024/01/26 05:34:46;;;;;;;18.77;9.77;;;;;;;1.14;100.00;98708.13;4994558;28;20048;-70
2024/01/26 05:37:12;;;;;;;17.07;9.77;;;;;;;1.21;100.00;98715.41;5110373;28;20126;-71
2024/01/26 05:39:39;;;;;;;22.17;10.13;;;;;;;1.22;100.00;98719.66;5093946;28;20124;-71
2024/01/26 05:42:05;;;;;;;17.80;10.07;;;;;;;1.24;100.00;98717.75;5092550;28;20051;-70
2024/01/26 05:44:31;;;;;;;19.07;10.70;;;;;;;1.24;100.00;98727.38;5059867;28;20407;-71
2024/01/26 05:46:56;;;;;;;21.73;11.00;;;;;;;1.24;100.00;98724.78;5043304;28;20039;-70
2024/01/26 05:49:25;;;;;;;21.83;11.30;;;;;;;1.28;100.00;98731.41;5093486;28;20471;-71
2024/01/26 05:51:51;;;;;;;20.90;11.33;;;;;;;1.25;100.00;98739.50;5093459;28;20384;-70
2024/01/26 05:54:17;;;;;;;19.53;10.80;;;;;;;1.25;100.00;98742.94;5114303;28;20083;-70
2024/01/26 05:56:43;;;;;;;21.27;10.53;;;;;;;1.26;100.00;98741.19;5081034;28;20080;-71
2024/01/26 05:59:10;;;;;;;19.90;11.13;;;;;;;1.28;100.00;98749.72;5097966;27;20046;-71
2024/01/26 06:01:37;;;;;;;21.53;11.73;;;;;;;1.30;100.00;98747.81;5115118;27;20051;-70
2024/01/26 06:04:05;;;;;;;21.50;11.83;;;;;;;1.29;100.00;98746.16;5114809;28;20078;-70
2024/01/26 06:06:31;;;;;;;18.97;10.80;;;;;;;1.26;100.00;98743.78;5097751;28;20104;-70
2024/01/26 06:08:57;;;;;;;19.63;10.27;;;;;;;1.31;100.00;98749.47;5113981;28;20051;-70
2024/01/26 06:11:25;;;;;;;19.17;10.50;;;;;;;1.35;100.00;98758.75;5114697;27;20043;-70
2024/01/26 06:13:51;;;;;;;19.33;10.30;;;;;;;1.36;100.00;98758.63;5132060;27;20150;-70
2024/01/26 06:16:17;;;;;;;21.17;11.20;;;;;;;1.33;100.00;98760.66;5080802;28;20039;-70
2024/01/26 06:18:44;;;;;;;19.63;10.60;;;;;;;1.35;100.00;98759.56;5131723;27;20137;-70
2024/01/26 06:21:11;;;;;;;18.70;10.20;;;;;;;1.39;100.00;98762.78;5097209;28;20075;-70
2024/01/26 06:23:38;;;;;;;19.17;10.20;;;;;;;1.39;100.00;98765.38;5080710;28;20173;-73
2024/01/26 06:26:04;;;;;;;18.83;10.67;;;;;;;1.33;100.00;98758.88;5147719;27;20043;-71
2024/01/26 06:28:30;;;;;;;21.53;10.17;;;;;;;1.33;100.00;98766.72;5080199;27;20138;-70
2024/01/26 06:30:56;;;;;;;15.57;9.10;;;;;;;1.36;100.00;98770.88;5130913;27;20055;-70
2024/01/26 06:33:23;;;;;;;18.93;10.17;;;;;;;1.32;100.00;98774.69;5080197;28;20043;-70
2024/01/26 06:35:49;;;;;;;18.60;10.47;;;;;;;1.33;100.00;98774.56;5131166;28;20134;-72
2024/01/26 06:38:16;;;;;;;16.20;8.83;;;;;;;1.34;100.00;98772.75;5080412;28;20061;-70
2024/01/26 06:40:42;;;;;;;16.00;8.13;;;;;;;1.41;100.00;98774.78;5113824;27;20035;-70
2024/01/26 06:43:09;;;;;;;17.97;9.83;;;;;;;1.39;100.00;98778.47;5131130;27;20061;-73
2024/01/26 06:45:36;;;;;;;18.17;9.17;;;;;;;1.33;100.00;98784.19;5097313;28;20043;-71
2024/01/26 06:48:01;;;;;;;17.60;9.23;;;;;;;1.38;100.00;98780.25;5114113;28;20039;-71
2024/01/26 06:50:28;;;;;;;16.00;8.63;;;;;;;1.40;100.00;98783.56;5080184;28;20103;-70
2024/01/26 06:52:54;;;;;;;14.57;8.30;;;;;;;1.36;100.00;98784.78;5098950;27;20499;-70
2024/01/26 06:55:19;;;;;;;15.80;8.60;;;;;;;1.40;100.00;98787.97;5100383;27;20050;-70
2024/01/26 06:57:45;;;;;;;16.90;9.27;;;;;;;1.41;100.00;98795.72;5117449;27;20051;-70
2024/01/26 07:00:12;;;;;;;15.73;8.87;;;;;;;1.47;100.00;98795.22;5100189;27;20050;-71
2024/01/26 07:02:38;;;;;;;14.53;7.77;;;;;;;1.47;100.00;98803.09;5083906;27;20054;-70
2024/01/26 07:05:04;;;;;;;16.20;9.47;;;;;;;1.42;100.00;98799.16;5117408;27;20042;-71
2024/01/26 07:07:33;;;;;;;18.10;9.80;;;;;;;1.51;100.00;98790.56;5100820;27;20043;-71
2024/01/26 07:09:59;;;;;;;19.23;9.50;;;;;;;1.51;100.00;98803.66;5083566;27;20039;-70
2024/01/26 07:12:24;;;;;;;17.17;9.17;;;;;;;1.52;100.00;98803.53;5083311;27;20062;-70
2024/01/26 07:14:50;;;;;;;16.37;9.07;;;;;;;1.56;100.00;98814.59;5114216;27;20064;-71
2024/01/26 07:17:17;;;;;;;17.30;8.90;;;;;;;1.59;100.00;98806.50;5083579;27;20425;-70
2024/01/26 07:19:43;;;;;;;14.80;8.37;;;;;;;1.61;100.00;98817.69;5083394;27;20058;-71
2024/01/26 07:22:09;;;;;;;15.63;8.63;;;;;;;1.62;100.00;98808.88;5117486;27;20047;-70
2024/01/26 07:24:36;;;;;;;15.03;8.40;;;;;;;1.75;100.00;98814.78;5083316;27;20132;-70
2024/01/26 07:27:03;;;;;;;15.07;7.73;;;;;;;1.67;100.00;98817.19;5116964;27;20096;-71
2024/01/26 07:29:28;;;;;;;16.53;9.00;;;;;;;1.71;100.00;98823.81;5116524;27;20494;-71
2024/01/26 07:31:55;;;;;;;18.20;9.23;;;;;;;1.73;100.00;98817.53;5117157;27;20043;-70
2024/01/26 07:34:21;;;;;;;16.77;8.77;;;;;;;1.80;100.00;98824.91;5057660;28;20060;-71
2024/01/26 07:36:47;;;;;;;14.33;8.47;;;;;;;1.82;100.00;98822.97;5075069;28;20058;-70
2024/01/26 07:39:14;;;;;;;16.00;8.70;;;;;;;1.84;100.00;98828.91;5074976;28;20474;-71
2024/01/26 07:41:42;;;;;;;18.30;9.00;;;;;;;1.88;100.00;98830.34;5054765;28;20118;-70
2024/01/26 07:44:08;;;;;;;14.73;8.53;;;;;;;1.89;100.00;98825.00;4998735;28;20060;-70
2024/01/26 07:46:33;;;;;;;16.33;9.03;;;;;;;1.89;100.00;98832.84;5031409;28;20497;-70
2024/01/26 07:49:02;;;;;;;18.63;9.10;;;;;;;1.95;100.00;98834.97;5014725;28;20156;-71
2024/01/26 07:51:28;;;;;;;16.63;8.63;;;;;;;1.97;100.00;98837.47;5014991;28;20144;-70
2024/01/26 07:53:54;;;;;;;19.13;10.03;;;;;;;2.00;100.00;98835.41;5015055;28;20053;-71
2024/01/26 07:56:21;;;;;;;18.67;9.27;;;;;;;2.06;100.00;98845.38;5033939;28;20057;-70
2024/01/26 07:58:47;;;;;;;16.37;9.27;;;;;;;2.07;100.00;98848.84;5015741;28;20083;-70
2024/01/26 08:01:13;;;;;;;18.90;9.37;;;;;;;2.15;100.00;98847.28;5015096;28;20045;-74
2024/01/26 08:03:40;;;;;;;16.23;9.70;;;;;;;2.20;100.00;98852.94;5014450;28;20139;-71
2024/01/26 08:06:07;;;;;;;16.57;9.07;;;;;;;2.23;100.00;98854.50;5021800;28;20484;-70
2024/01/26 08:08:33;;;;;;;16.73;9.47;;;;;;;2.20;100.00;98866.06;5054547;28;20476;-70
2024/01/26 08:10:59;;;;;;;18.63;9.90;;;;;;;2.20;100.00;98860.81;5004994;28;20056;-70
2024/01/26 08:13:25;;;;;;;17.17;9.63;;;;;;;2.20;100.00;98860.81;5038069;28;20063;-70
2024/01/26 08:15:52;;;;;;;18.27;9.97;;;;;;;2.29;100.00;98865.28;5070995;28;20150;-70
2024/01/26 08:18:18;;;;;;;19.30;10.03;;;;;;;2.26;100.00;98873.41;5024555;28;20048;-70
2024/01/26 08:20:44;;;;;;;19.23;9.80;;;;;;;2.29;100.00;98869.72;5057912;28;20043;-73
2024/01/26 08:23:10;;;;;;;17.10;9.67;;;;;;;2.31;100.00;98870.41;5041623;28;20135;-70
2024/01/26 08:25:36;;;;;;;17.23;8.53;;;;;;;2.33;100.00;98873.75;5068847;28;20124;-70
2024/01/26 08:28:01;;;;;;;17.47;8.53;;;;;;;2.37;100.00;98885.66;5017891;28;20051;-70
2024/01/26 08:30:28;;;;;;;15.47;8.47;;;;;;;2.39;100.00;98881.94;5017835;28;20045;-70
2024/01/26 08:32:55;;;;;;;15.87;8.60;;;;;;;2.51;100.00;98873.06;5033693;28;20053;-70
2024/01/26 08:35:21;;;;;;;17.60;9.20;;;;;;;2.47;100.00;98879.53;5036315;28;20060;-70
2024/01/26 08:37:47;;;;;;;15.53;9.03;;;;;;;2.50;100.00;98874.03;5073962;28;20196;-70
2024/01/26 08:40:14;;;;;;;15.53;8.70;;;;;;;2.52;100.00;98882.59;5040997;28;20054;-70
2024/01/26 08:42:40;;;;;;;14.13;8.87;;;;;;;2.55;100.00;98879.72;5056943;28;20044;-70
2024/01/26 08:45:07;;;;;;;15.17;8.93;;;;;;;2.59;100.00;98878.53;5040132;28;20043;-70
2024/01/26 08:47:33;;;;;;;18.20;9.17;;;;;;;2.61;100.00;98883.63;5056694;28;20048;-70
2024/01/26 08:49:59;;;;;;;16.40;9.13;;;;;;;2.64;100.00;98878.97;5036480;28;20056;-69
2024/01/26 08:52:25;;;;;;;15.27;8.60;;;;;;;2.68;100.00;98887.41;5020161;28;20063;-70
2024/01/26 08:54:52;;;;;;;12.07;7.67;;;;;;;2.75;100.00;98878.91;5053419;28;20052;-69
2024/01/26 08:57:20;;;;;;;14.93;8.30;;;;;;;2.76;100.00;98887.59;5020267;28;20040;-70
2024/01/26 08:59:46;;;;;;;14.17;8.03;;;;;;;2.75;100.00;98892.00;5044104;28;20051;-74
2024/01/26 09:02:12;;;;;;;13.50;7.63;;;;;;;2.74;100.00;98887.72;5093968;28;20109;-69
2024/01/26 09:04:38;;;;;;;14.20;7.63;;;;;;;2.75;100.00;98892.00;5076652;28;20096;-70
2024/01/26 09:07:03;;;;;;;13.40;6.97;;;;;;;2.84;100.00;98886.03;5060176;28;20101;-69
2024/01/26 09:09:31;;;;;;;14.50;8.37;;;;;;;3.00;100.00;98882.91;5060371;28;20170;-70
2024/01/26 09:11:56;;;;;;;13.57;7.77;;;;;;;3.07;100.00;98889.31;5076543;28;20086;-71
2024/01/26 09:14:22;;;;;;;13.40;8.07;;;;;;;3.12;100.00;98885.34;5059894;28;20541;-70
2024/01/26 09:16:51;;;;;;;13.97;7.70;;;;;;;3.16;100.00;98885.91;5019889;28;20083;-71
2024/01/26 09:19:21;;;;;;;12.90;8.27;;;;;;;3.15;100.00;98882.47;5020582;28;20048;-73
2024/01/26 09:21:50;;;;;;;14.35;7.85;;;;;;;3.20;100.00;98876.81;5071654;28;20070;-71
2024/01/26 09:24:16;;;;;;;16.73;8.50;;;;;;;3.33;100.00;98885.31;5061443;28;20063;-71
2024/01/26 09:26:43;;;;;;;12.87;7.50;;;;;;;3.29;100.00;98887.38;5077465;28;20290;-71
2024/01/26 09:29:09;;;;;;;13.53;7.30;;;;;;;3.32;100.00;98887.09;5061053;28;20055;-71
2024/01/26 09:31:37;;;;;;;13.07;7.57;;;;;;;3.36;100.00;98879.81;5078000;28;20102;-71
2024/01/26 09:34:03;;;;;;;14.10;7.17;;;;;;;3.41;100.00;98888.13;5076995;28;20462;-71
2024/01/26 09:36:29;;;;;;;10.30;6.60;;;;;;;3.56;100.00;98889.44;5110349;28;20051;-70
2024/01/26 09:38:56;;;;;;;12.47;7.43;;;;;;;3.63;100.00;98893.16;5093440;28;20584;-71
2024/01/26 09:41:22;;;;;;;13.17;7.43;;;;;;;3.57;100.00;98893.69;5093335;28;20165;-71
2024/01/26 09:43:48;;;;;;;13.43;7.47;;;;;;;3.55;100.00;98894.81;5036304;28;20523;-71
2024/01/26 09:46:14;;;;;;;12.43;7.67;;;;;;;3.57;100.00;98891.06;5036810;28;20063;-70
2024/01/26 09:48:40;;;;;;;14.43;7.67;;;;;;;3.53;100.00;98904.59;5054971;28;20056;-70
2024/01/26 09:51:06;;;;;;;14.50;8.53;;;;;;;3.51;100.00;98896.84;5040251;28;20139;-71
2024/01/26 09:53:35;;;;;;;12.93;8.10;;;;;;;3.53;100.00;98899.34;5039901;28;20071;-71
2024/01/26 09:56:02;;;;;;;13.67;8.57;;;;;;;3.56;100.00;98896.47;5053851;28;20099;-71
2024/01/26 09:58:29;;;;;;;12.77;8.27;;;;;;;3.52;100.00;98897.69;5016125;28;20081;-71
2024/01/26 10:00:55;;;;;;;17.00;8.80;;;;;;;3.53;100.00;98892.31;5032803;28;20481;-71
2024/01/26 10:03:24;;;;;;;16.10;8.80;;;;;;;3.62;100.00;98899.41;5016710;28;20120;-72
2024/01/26 10:05:51;;;;;;;14.00;8.53;;;;;;;3.54;100.00;98893.97;5032930;28;20045;-72
2024/01/26 10:08:18;;;;;;;14.83;8.43;;;;;;;3.47;100.00;98898.09;5050714;28;20065;-71
2024/01/26 10:10:44;;;;;;;14.87;8.87;;;;;;;3.46;100.00;98889.38;5033339;28;20048;-72
2024/01/26 10:13:11;;;;;;;15.63;9.67;;;;;;;3.45;100.00;98900.84;5013639;28;20156;-71
2024/01/26 10:15:37;;;;;;;15.83;8.73;;;;;;;3.45;100.00;98898.22;5015993;28;20095;-71
2024/01/26 10:18:03;;;;;;;17.23;9.70;;;;;;;3.44;100.00;98900.97;5054219;28;20496;-71
2024/01/26 10:20:29;;;;;;;18.57;9.47;;;;;;;3.35;100.00;98891.28;5019761;28;20040;-72
2024/01/26 10:22:56;;;;;;;16.53;10.07;;;;;;;3.41;100.00;98899.44;5036013;28;20211;-71
2024/01/26 10:25:22;;;;;;;19.70;11.10;;;;;;;3.36;100.00;98903.44;4996474;28;20112;-72
2024/01/26 10:27:54;;;;;;;20.00;10.47;;;;;;;3.32;100.00;98909.91;4996265;28;20050;-71
2024/01/26 10:30:20;;;;;;;19.40;11.80;;;;;;;3.36;100.00;98904.28;5032202;28;20053;-71
2024/01/26 10:32:48;;;;;;;21.07;11.97;;;;;;;3.31;100.00;98900.34;5004283;28;20063;-72
2024/01/26 10:35:15;;;;;;;21.87;12.37;;;;;;;3.36;100.00;98900.81;5020166;28;20045;-72
2024/01/26 10:37:49;;;;;;;22.50;12.27;;;;;;;3.35;100.00;98901.78;5019466;28;20196;-72
2024/01/26 10:40:17;;;;;;;21.27;12.57;;;;;;;3.22;100.00;98893.28;5002886;28;20160;-72
2024/01/26 10:42:47;;;;;;;23.17;13.03;;;;;;;3.35;100.00;98901.78;4981036;28;20473;-71
2024/01/26 10:45:16;;;;;;;24.13;13.27;;;;;;;3.41;100.00;98912.56;4965333;28;20169;-70
2024/01/26 10:47:48;;;;;;;23.33;13.17;;;;;;;3.39;100.00;98911.88;4980812;28;20747;-71
2024/01/26 10:50:15;;;;;;;25.53;13.37;;;;;;;3.25;100.00;98909.59;5003340;28;20126;-71
2024/01/26 10:52:44;;;;;;;26.43;13.87;;;;;;;3.29;100.00;98908.34;4999583;28;20057;-71
2024/01/26 10:55:13;;;;;;;27.30;14.67;;;;;;;3.30;100.00;98898.69;4983014;28;20116;-71
2024/01/26 10:57:39;;;;;;;30.83;15.73;;;;;;;3.21;100.00;98910.78;5053725;28;20047;-71
2024/01/26 11:00:05;;;;;;;28.90;15.13;;;;;;;3.26;100.00;98907.78;5005193;28;20052;-71
2024/01/26 11:02:34;;;;;;;29.10;15.70;;;;;;;3.31;100.00;98916.94;5054359;28;20496;-71
2024/01/26 11:05:07;;;;;;;29.30;15.37;;;;;;;3.16;100.00;98918.25;5072858;28;20055;-74
2024/01/26 11:07:34;;;;;;;32.17;15.27;;;;;;;3.12;100.00;98918.63;5008024;28;20106;-70
2024/01/26 11:10:06;;;;;;;28.90;16.00;;;;;;;3.25;100.00;98927.13;5040006;28;20090;-71
2024/01/26 11:12:35;;;;;;;30.20;15.47;;;;;;;3.22;100.00;98928.22;5076943;28;20162;-71
2024/01/26 11:15:14;;;;;;;30.50;16.23;;;;;;;3.22;100.00;98922.13;5076101;28;20067;-71
2024/01/26 11:17:53;;;;;;;32.13;15.93;;;;;;;3.13;100.00;98920.28;5042301;28;20193;-72
2024/01/26 11:20:31;;;;;;;29.77;15.63;;;;;;;3.14;100.00;98930.66;5015328;28;20041;-72